Billings, Montana
Current Conditions -  °F | °C
As of 5:53 PM on Sunday 23 Nov 2014 (Local Time) from KBIL Reporting Station
Scattered Clouds Scattered Clouds  
Wind Chill: 28°   Ceiling: Unl
Heat Index: 35°   Visibility: 10mi
Dew Point: 15°   Wind: 9mph
Humidity: 44%   Direction: 250°WSW
Pressure: 29.86"   Gusts: NA
Location:  45.78°N, 108.5°W
Report Text: KBIL 240053Z 25008KT 10SM SCT220 02/M09 A2986 RMK AO2 SLP136 T00171094 $
Loading
Personal Weather Stations






























Interactive Weather Map New forecast layout! Learn more

10-Day Weather Forecast

Advertisements
Track Severe Weather on mobile